sensor_id;sensor_type;location;lat;lon;timestamp;temperature;humidity
9915;DHT22;4996;48.746;9.174;2022-08-19T00:01:43;22.40;99.90
9915;DHT22;4996;48.746;9.174;2022-08-19T00:04:12;22.40;99.90
9915;DHT22;4996;48.746;9.174;2022-08-19T00:06:40;22.30;99.90
9915;DHT22;4996;48.746;9.174;2022-08-19T00:09:08;22.30;99.90
9915;DHT22;4996;48.746;9.174;2022-08-19T00:11:34;22.40;99.90
9915;DHT22;4996;48.746;9.174;2022-08-19T00:14:03;22.40;99.90
9915;DHT22;4996;48.746;9.174;2022-08-19T00:16:29;22.30;99.90
9915;DHT22;4996;48.746;9.174;2022-08-19T00:18:55;22.40;99.90
9915;DHT22;4996;48.746;9.174;2022-08-19T00:21:21;22.40;99.90
9915;DHT22;4996;48.746;9.174;2022-08-19T00:23:47;22.40;99.90
9915;DHT22;4996;48.746;9.174;2022-08-19T00:26:13;22.40;99.90
9915;DHT22;4996;48.746;9.174;2022-08-19T00:28:39;22.30;99.90
9915;DHT22;4996;48.746;9.174;2022-08-19T00:31:06;22.30;99.90
9915;DHT22;4996;48.746;9.174;2022-08-19T00:33:33;22.30;99.90
9915;DHT22;4996;48.746;9.174;2022-08-19T00:36:04;22.20;99.90
9915;DHT22;4996;48.746;9.174;2022-08-19T00:38:30;22.20;99.90
9915;DHT22;4996;48.746;9.174;2022-08-19T00:40:57;22.10;99.90
9915;DHT22;4996;48.746;9.174;2022-08-19T00:43:23;22.20;99.90
9915;DHT22;4996;48.746;9.174;2022-08-19T00:45:50;22.00;99.90
9915;DHT22;4996;48.746;9.174;2022-08-19T00:48:17;22.00;99.90
9915;DHT22;4996;48.746;9.174;2022-08-19T00:50:44;22.10;99.90
9915;DHT22;4996;48.746;9.174;2022-08-19T00:53:15;22.00;99.90
9915;DHT22;4996;48.746;9.174;2022-08-19T00:55:45;22.00;99.90
9915;DHT22;4996;48.746;9.174;2022-08-19T00:58:14;22.10;99.90
9915;DHT22;4996;48.746;9.174;2022-08-19T01:00:41;22.20;99.90
9915;DHT22;4996;48.746;9.174;2022-08-19T01:03:11;22.10;99.90
9915;DHT22;4996;48.746;9.174;2022-08-19T01:05:38;22.00;99.90
9915;DHT22;4996;48.746;9.174;2022-08-19T01:08:05;22.10;99.90
9915;DHT22;4996;48.746;9.174;2022-08-19T01:10:35;22.00;99.90
9915;DHT22;4996;48.746;9.174;2022-08-19T01:13:03;22.10;99.90
9915;DHT22;4996;48.746;9.174;2022-08-19T01:15:32;22.10;99.90
9915;DHT22;4996;48.746;9.174;2022-08-19T01:18:00;22.10;99.90
9915;DHT22;4996;48.746;9.174;2022-08-19T01:20:26;22.20;99.90
9915;DHT22;4996;48.746;9.174;2022-08-19T01:22:58;22.10;99.90
9915;DHT22;4996;48.746;9.174;2022-08-19T01:25:28;22.10;99.90
9915;DHT22;4996;48.746;9.174;2022-08-19T01:27:54;22.00;99.90
9915;DHT22;4996;48.746;9.174;2022-08-19T01:30:24;22.10;99.90
9915;DHT22;4996;48.746;9.174;2022-08-19T01:32:51;22.00;99.90
9915;DHT22;4996;48.746;9.174;2022-08-19T01:35:18;22.00;99.90
9915;DHT22;4996;48.746;9.174;2022-08-19T01:37:53;22.10;99.90
9915;DHT22;4996;48.746;9.174;2022-08-19T01:40:22;22.00;99.90
9915;DHT22;4996;48.746;9.174;2022-08-19T01:42:49;22.10;99.90
9915;DHT22;4996;48.746;9.174;2022-08-19T01:45:15;22.00;99.90
9915;DHT22;4996;48.746;9.174;2022-08-19T01:47:41;22.00;99.90
9915;DHT22;4996;48.746;9.174;2022-08-19T01:50:08;22.00;99.90
9915;DHT22;4996;48.746;9.174;2022-08-19T01:52:36;22.00;99.90
9915;DHT22;4996;48.746;9.174;2022-08-19T01:55:02;21.90;99.90
9915;DHT22;4996;48.746;9.174;2022-08-19T01:57:27;22.00;99.90
9915;DHT22;4996;48.746;9.174;2022-08-19T01:59:53;22.00;99.90
9915;DHT22;4996;48.746;9.174;2022-08-19T02:02:19;22.10;99.90
9915;DHT22;4996;48.746;9.174;2022-08-19T02:04:44;22.10;99.90
9915;DHT22;4996;48.746;9.174;2022-08-19T02:07:11;22.20;99.90
9915;DHT22;4996;48.746;9.174;2022-08-19T02:09:37;22.10;99.90
9915;DHT22;4996;48.746;9.174;2022-08-19T02:12:04;22.10;99.90
9915;DHT22;4996;48.746;9.174;2022-08-19T02:14:29;22.10;99.90
9915;DHT22;4996;48.746;9.174;2022-08-19T02:16:55;22.20;99.90
9915;DHT22;4996;48.746;9.174;2022-08-19T02:19:20;22.20;99.90
9915;DHT22;4996;48.746;9.174;2022-08-19T02:21:46;22.00;99.90
9915;DHT22;4996;48.746;9.174;2022-08-19T02:24:11;22.00;99.90
9915;DHT22;4996;48.746;9.174;2022-08-19T02:26:37;22.00;99.90
9915;DHT22;4996;48.746;9.174;2022-08-19T02:29:03;22.00;99.90
9915;DHT22;4996;48.746;9.174;2022-08-19T02:31:29;22.00;99.90
9915;DHT22;4996;48.746;9.174;2022-08-19T02:33:56;22.00;99.90
9915;DHT22;4996;48.746;9.174;2022-08-19T02:36:22;22.00;99.90
9915;DHT22;4996;48.746;9.174;2022-08-19T02:38:48;22.00;99.90
9915;DHT22;4996;48.746;9.174;2022-08-19T02:41:19;22.10;99.90
9915;DHT22;4996;48.746;9.174;2022-08-19T02:43:46;21.90;99.90
9915;DHT22;4996;48.746;9.174;2022-08-19T02:46:25;22.00;99.90
9915;DHT22;4996;48.746;9.174;2022-08-19T02:48:54;21.90;99.90
9915;DHT22;4996;48.746;9.174;2022-08-19T02:51:25;21.90;99.90
9915;DHT22;4996;48.746;9.174;2022-08-19T02:53:51;21.90;99.90
9915;DHT22;4996;48.746;9.174;2022-08-19T02:56:18;21.70;99.90
9915;DHT22;4996;48.746;9.174;2022-08-19T02:58:44;21.40;99.90
9915;DHT22;4996;48.746;9.174;2022-08-19T03:01:10;21.40;99.90
9915;DHT22;4996;48.746;9.174;2022-08-19T03:03:36;21.50;99.90
9915;DHT22;4996;48.746;9.174;2022-08-19T03:06:12;21.60;99.90
9915;DHT22;4996;48.746;9.174;2022-08-19T03:08:41;21.40;99.90
9915;DHT22;4996;48.746;9.174;2022-08-19T03:11:16;21.50;99.90
9915;DHT22;4996;48.746;9.174;2022-08-19T03:13:42;21.30;99.90
9915;DHT22;4996;48.746;9.174;2022-08-19T03:16:09;21.30;99.90
9915;DHT22;4996;48.746;9.174;2022-08-19T03:18:34;21.30;99.90
9915;DHT22;4996;48.746;9.174;2022-08-19T03:21:00;21.20;99.90
9915;DHT22;4996;48.746;9.174;2022-08-19T03:23:26;21.30;99.90
9915;DHT22;4996;48.746;9.174;2022-08-19T03:25:53;21.20;99.90
9915;DHT22;4996;48.746;9.174;2022-08-19T03:28:19;21.20;99.90
9915;DHT22;4996;48.746;9.174;2022-08-19T03:30:59;21.20;99.90
9915;DHT22;4996;48.746;9.174;2022-08-19T03:33:26;21.10;99.90
9915;DHT22;4996;48.746;9.174;2022-08-19T03:36:02;21.10;99.90
9915;DHT22;4996;48.746;9.174;2022-08-19T03:38:29;21.10;99.90
9915;DHT22;4996;48.746;9.174;2022-08-19T03:40:55;21.20;99.90
9915;DHT22;4996;48.746;9.174;2022-08-19T03:43:20;21.10;99.90
9915;DHT22;4996;48.746;9.174;2022-08-19T03:45:46;21.20;99.90
9915;DHT22;4996;48.746;9.174;2022-08-19T03:48:12;21.20;99.90
9915;DHT22;4996;48.746;9.174;2022-08-19T03:50:40;21.20;99.90
9915;DHT22;4996;48.746;9.174;2022-08-19T03:53:06;21.00;99.90
9915;DHT22;4996;48.746;9.174;2022-08-19T03:55:38;21.10;99.90
9915;DHT22;4996;48.746;9.174;2022-08-19T03:58:04;21.20;99.90
9915;DHT22;4996;48.746;9.174;2022-08-19T04:00:29;21.00;99.90
9915;DHT22;4996;48.746;9.174;2022-08-19T04:02:54;21.00;99.90
9915;DHT22;4996;48.746;9.174;2022-08-19T04:05:20;21.00;99.90
9915;DHT22;4996;48.746;9.174;2022-08-19T04:07:46;21.00;99.90
9915;DHT22;4996;48.746;9.174;2022-08-19T04:10:11;20.90;99.90
9915;DHT22;4996;48.746;9.174;2022-08-19T04:12:37;20.90;99.90
9915;DHT22;4996;48.746;9.174;2022-08-19T04:15:03;21.00;99.90
9915;DHT22;4996;48.746;9.174;2022-08-19T04:17:29;20.80;99.90
9915;DHT22;4996;48.746;9.174;2022-08-19T04:19:54;20.90;99.90
9915;DHT22;4996;48.746;9.174;2022-08-19T04:22:20;20.80;99.90
9915;DHT22;4996;48.746;9.174;2022-08-19T04:24:45;20.70;99.90
9915;DHT22;4996;48.746;9.174;2022-08-19T04:27:11;20.60;99.90
9915;DHT22;4996;48.746;9.174;2022-08-19T04:29:36;20.70;99.90
9915;DHT22;4996;48.746;9.174;2022-08-19T04:32:04;20.70;99.90
9915;DHT22;4996;48.746;9.174;2022-08-19T04:34:31;20.80;99.90
9915;DHT22;4996;48.746;9.174;2022-08-19T04:36:58;20.80;99.90
9915;DHT22;4996;48.746;9.174;2022-08-19T04:39:28;20.80;99.90
9915;DHT22;4996;48.746;9.174;2022-08-19T04:42:13;21.00;99.90
9915;DHT22;4996;48.746;9.174;2022-08-19T04:44:57;20.80;99.90
9915;DHT22;4996;48.746;9.174;2022-08-19T04:47:23;20.60;99.90
9915;DHT22;4996;48.746;9.174;2022-08-19T04:49:49;20.60;99.90
9915;DHT22;4996;48.746;9.174;2022-08-19T04:52:15;20.50;99.90
9915;DHT22;4996;48.746;9.174;2022-08-19T04:54:41;20.90;99.90
9915;DHT22;4996;48.746;9.174;2022-08-19T04:57:07;20.60;99.90
9915;DHT22;4996;48.746;9.174;2022-08-19T04:59:34;20.70;99.90
9915;DHT22;4996;48.746;9.174;2022-08-19T05:02:00;20.80;99.90
9915;DHT22;4996;48.746;9.174;2022-08-19T05:04:25;20.70;99.90
9915;DHT22;4996;48.746;9.174;2022-08-19T05:06:51;20.80;99.90
9915;DHT22;4996;48.746;9.174;2022-08-19T05:09:17;20.50;99.90
9915;DHT22;4996;48.746;9.174;2022-08-19T05:11:43;20.60;99.90
9915;DHT22;4996;48.746;9.174;2022-08-19T05:14:10;20.70;99.90
9915;DHT22;4996;48.746;9.174;2022-08-19T05:16:37;20.50;99.90
9915;DHT22;4996;48.746;9.174;2022-08-19T05:19:03;20.50;99.90
9915;DHT22;4996;48.746;9.174;2022-08-19T05:21:47;20.40;99.90
9915;DHT22;4996;48.746;9.174;2022-08-19T05:24:32;20.50;99.90
9915;DHT22;4996;48.746;9.174;2022-08-19T05:26:59;20.50;99.90
9915;DHT22;4996;48.746;9.174;2022-08-19T05:29:27;20.60;99.90
9915;DHT22;4996;48.746;9.174;2022-08-19T05:31:53;20.70;99.90
9915;DHT22;4996;48.746;9.174;2022-08-19T05:34:20;20.60;99.90
9915;DHT22;4996;48.746;9.174;2022-08-19T05:36:49;20.60;99.90
9915;DHT22;4996;48.746;9.174;2022-08-19T05:39:18;20.70;99.90
9915;DHT22;4996;48.746;9.174;2022-08-19T05:41:53;20.70;99.90
9915;DHT22;4996;48.746;9.174;2022-08-19T05:44:20;20.80;99.90
9915;DHT22;4996;48.746;9.174;2022-08-19T05:46:47;20.80;99.90
9915;DHT22;4996;48.746;9.174;2022-08-19T05:49:13;20.80;99.90
9915;DHT22;4996;48.746;9.174;2022-08-19T05:51:40;20.80;99.90
9915;DHT22;4996;48.746;9.174;2022-08-19T05:54:06;20.80;99.90
9915;DHT22;4996;48.746;9.174;2022-08-19T05:56:33;20.60;99.90
9915;DHT22;4996;48.746;9.174;2022-08-19T05:59:02;20.90;99.90
9915;DHT22;4996;48.746;9.174;2022-08-19T06:01:27;20.70;99.90
9915;DHT22;4996;48.746;9.174;2022-08-19T06:03:53;20.80;99.90
9915;DHT22;4996;48.746;9.174;2022-08-19T06:06:19;20.90;99.90
9915;DHT22;4996;48.746;9.174;2022-08-19T06:08:45;20.90;99.90
9915;DHT22;4996;48.746;9.174;2022-08-19T06:11:34;20.90;99.90
9915;DHT22;4996;48.746;9.174;2022-08-19T06:14:03;21.00;99.90
9915;DHT22;4996;48.746;9.174;2022-08-19T06:16:29;20.90;99.90
9915;DHT22;4996;48.746;9.174;2022-08-19T06:19:01;20.80;99.90
9915;DHT22;4996;48.746;9.174;2022-08-19T06:21:28;20.90;99.90
9915;DHT22;4996;48.746;9.174;2022-08-19T06:23:55;20.90;99.90
9915;DHT22;4996;48.746;9.174;2022-08-19T06:26:21;20.90;99.90
9915;DHT22;4996;48.746;9.174;2022-08-19T06:28:48;20.90;99.90
9915;DHT22;4996;48.746;9.174;2022-08-19T06:31:15;20.80;99.90
9915;DHT22;4996;48.746;9.174;2022-08-19T06:33:42;20.90;99.90
9915;DHT22;4996;48.746;9.174;2022-08-19T06:38:47;20.80;99.90
9915;DHT22;4996;48.746;9.174;2022-08-19T06:41:13;21.00;99.90
9915;DHT22;4996;48.746;9.174;2022-08-19T06:43:39;20.90;99.90
9915;DHT22;4996;48.746;9.174;2022-08-19T06:46:13;20.70;99.90
9915;DHT22;4996;48.746;9.174;2022-08-19T06:48:39;20.80;99.90
9915;DHT22;4996;48.746;9.174;2022-08-19T06:51:05;20.60;99.90
9915;DHT22;4996;48.746;9.174;2022-08-19T06:53:32;20.70;99.90
9915;DHT22;4996;48.746;9.174;2022-08-19T06:55:57;20.80;99.90
9915;DHT22;4996;48.746;9.174;2022-08-19T06:58:30;20.80;99.90
9915;DHT22;4996;48.746;9.174;2022-08-19T07:01:02;20.70;99.90
9915;DHT22;4996;48.746;9.174;2022-08-19T07:03:32;20.60;99.90
9915;DHT22;4996;48.746;9.174;2022-08-19T07:06:06;20.60;99.90
9915;DHT22;4996;48.746;9.174;2022-08-19T07:08:33;20.60;99.90
9915;DHT22;4996;48.746;9.174;2022-08-19T07:10:59;20.60;99.90
9915;DHT22;4996;48.746;9.174;2022-08-19T07:13:24;20.70;99.90
9915;DHT22;4996;48.746;9.174;2022-08-19T07:15:50;20.70;99.90
9915;DHT22;4996;48.746;9.174;2022-08-19T07:18:18;20.60;99.90
9915;DHT22;4996;48.746;9.174;2022-08-19T07:20:44;20.60;99.90
9915;DHT22;4996;48.746;9.174;2022-08-19T07:23:10;20.40;99.90
9915;DHT22;4996;48.746;9.174;2022-08-19T07:25:37;20.40;99.90
9915;DHT22;4996;48.746;9.174;2022-08-19T07:28:03;20.40;99.90
9915;DHT22;4996;48.746;9.174;2022-08-19T07:30:29;20.50;99.90
9915;DHT22;4996;48.746;9.174;2022-08-19T07:32:55;20.60;99.90
9915;DHT22;4996;48.746;9.174;2022-08-19T07:35:22;20.50;99.90
9915;DHT22;4996;48.746;9.174;2022-08-19T07:37:49;20.50;99.90
9915;DHT22;4996;48.746;9.174;2022-08-19T07:40:14;20.70;99.90
9915;DHT22;4996;48.746;9.174;2022-08-19T07:42:40;20.70;99.90
9915;DHT22;4996;48.746;9.174;2022-08-19T07:45:07;20.70;99.90
9915;DHT22;4996;48.746;9.174;2022-08-19T07:47:33;20.80;99.90
9915;DHT22;4996;48.746;9.174;2022-08-19T07:49:59;20.80;99.90
9915;DHT22;4996;48.746;9.174;2022-08-19T07:52:25;20.80;99.90
9915;DHT22;4996;48.746;9.174;2022-08-19T07:54:50;20.80;99.90
9915;DHT22;4996;48.746;9.174;2022-08-19T07:57:16;20.80;99.90
9915;DHT22;4996;48.746;9.174;2022-08-19T07:59:42;20.90;99.90
9915;DHT22;4996;48.746;9.174;2022-08-19T08:02:08;20.90;99.90
9915;DHT22;4996;48.746;9.174;2022-08-19T08:04:34;20.70;99.90
9915;DHT22;4996;48.746;9.174;2022-08-19T08:07:18;20.70;99.90
9915;DHT22;4996;48.746;9.174;2022-08-19T08:10:04;20.60;99.90
9915;DHT22;4996;48.746;9.174;2022-08-19T08:12:34;20.50;99.90
9915;DHT22;4996;48.746;9.174;2022-08-19T08:15:03;20.60;99.90
9915;DHT22;4996;48.746;9.174;2022-08-19T08:17:31;20.70;99.90
9915;DHT22;4996;48.746;9.174;2022-08-19T08:19:57;20.80;99.90
9915;DHT22;4996;48.746;9.174;2022-08-19T08:22:24;20.70;99.90
9915;DHT22;4996;48.746;9.174;2022-08-19T08:25:16;20.70;99.90
9915;DHT22;4996;48.746;9.174;2022-08-19T08:27:44;20.60;99.90
9915;DHT22;4996;48.746;9.174;2022-08-19T08:30:13;20.40;99.90
9915;DHT22;4996;48.746;9.174;2022-08-19T08:32:41;20.60;99.90
9915;DHT22;4996;48.746;9.174;2022-08-19T08:35:09;20.30;99.90
9915;DHT22;4996;48.746;9.174;2022-08-19T08:37:35;20.10;99.90
9915;DHT22;4996;48.746;9.174;2022-08-19T08:43:06;20.10;99.90
9915;DHT22;4996;48.746;9.174;2022-08-19T08:45:38;20.10;99.90
9915;DHT22;4996;48.746;9.174;2022-08-19T08:48:17;20.10;99.90
9915;DHT22;4996;48.746;9.174;2022-08-19T08:50:45;20.30;99.90
9915;DHT22;4996;48.746;9.174;2022-08-19T08:53:14;20.30;99.90
9915;DHT22;4996;48.746;9.174;2022-08-19T08:55:41;20.30;99.90
9915;DHT22;4996;48.746;9.174;2022-08-19T08:58:15;20.20;99.90
9915;DHT22;4996;48.746;9.174;2022-08-19T09:00:46;20.40;99.90
9915;DHT22;4996;48.746;9.174;2022-08-19T09:03:24;20.60;99.90
9915;DHT22;4996;48.746;9.174;2022-08-19T09:05:56;20.50;99.90
9915;DHT22;4996;48.746;9.174;2022-08-19T09:08:33;20.60;99.90
9915;DHT22;4996;48.746;9.174;2022-08-19T09:11:07;20.30;99.90
9915;DHT22;4996;48.746;9.174;2022-08-19T09:13:41;20.30;99.90
9915;DHT22;4996;48.746;9.174;2022-08-19T09:16:13;20.40;99.90
9915;DHT22;4996;48.746;9.174;2022-08-19T09:18:42;20.50;99.90
9915;DHT22;4996;48.746;9.174;2022-08-19T09:21:08;20.50;99.90
9915;DHT22;4996;48.746;9.174;2022-08-19T09:23:35;20.40;99.90
9915;DHT22;4996;48.746;9.174;2022-08-19T09:26:00;20.60;99.90
9915;DHT22;4996;48.746;9.174;2022-08-19T09:28:26;20.60;99.90
9915;DHT22;4996;48.746;9.174;2022-08-19T09:30:52;20.60;99.90
9915;DHT22;4996;48.746;9.174;2022-08-19T09:33:18;20.60;99.90
9915;DHT22;4996;48.746;9.174;2022-08-19T09:35:44;20.70;99.90
9915;DHT22;4996;48.746;9.174;2022-08-19T09:38:10;20.80;99.90
9915;DHT22;4996;48.746;9.174;2022-08-19T09:40:35;20.80;99.90
9915;DHT22;4996;48.746;9.174;2022-08-19T09:43:01;20.80;99.90
9915;DHT22;4996;48.746;9.174;2022-08-19T09:45:28;21.00;99.90
9915;DHT22;4996;48.746;9.174;2022-08-19T09:47:54;21.20;99.90
9915;DHT22;4996;48.746;9.174;2022-08-19T09:50:20;21.20;99.90
9915;DHT22;4996;48.746;9.174;2022-08-19T09:52:47;21.10;99.90
9915;DHT22;4996;48.746;9.174;2022-08-19T09:55:13;21.30;99.90
9915;DHT22;4996;48.746;9.174;2022-08-19T09:57:39;21.20;99.90
9915;DHT22;4996;48.746;9.174;2022-08-19T10:00:06;21.00;99.90
9915;DHT22;4996;48.746;9.174;2022-08-19T10:02:33;21.10;99.90
9915;DHT22;4996;48.746;9.174;2022-08-19T10:04:58;21.00;99.90
9915;DHT22;4996;48.746;9.174;2022-08-19T10:07:42;21.10;99.90
9915;DHT22;4996;48.746;9.174;2022-08-19T10:10:08;21.30;99.90
9915;DHT22;4996;48.746;9.174;2022-08-19T10:12:35;21.30;99.90
9915;DHT22;4996;48.746;9.174;2022-08-19T10:15:01;21.40;99.90
9915;DHT22;4996;48.746;9.174;2022-08-19T10:17:27;21.60;99.90
9915;DHT22;4996;48.746;9.174;2022-08-19T10:19:52;21.50;99.90
9915;DHT22;4996;48.746;9.174;2022-08-19T10:22:18;21.40;99.90
9915;DHT22;4996;48.746;9.174;2022-08-19T10:24:46;21.60;99.90
9915;DHT22;4996;48.746;9.174;2022-08-19T10:27:11;21.70;99.90
9915;DHT22;4996;48.746;9.174;2022-08-19T10:29:38;21.80;99.90
9915;DHT22;4996;48.746;9.174;2022-08-19T10:32:06;21.70;99.90
9915;DHT22;4996;48.746;9.174;2022-08-19T10:34:32;21.70;99.90
9915;DHT22;4996;48.746;9.174;2022-08-19T10:36:58;21.70;99.90
9915;DHT22;4996;48.746;9.174;2022-08-19T10:39:25;21.70;99.90
9915;DHT22;4996;48.746;9.174;2022-08-19T10:41:51;21.70;99.90
9915;DHT22;4996;48.746;9.174;2022-08-19T10:44:17;21.90;99.90
9915;DHT22;4996;48.746;9.174;2022-08-19T10:46:43;21.70;99.90
9915;DHT22;4996;48.746;9.174;2022-08-19T10:49:10;21.80;99.90
9915;DHT22;4996;48.746;9.174;2022-08-19T10:51:38;21.80;99.90
9915;DHT22;4996;48.746;9.174;2022-08-19T10:54:23;21.80;99.90
9915;DHT22;4996;48.746;9.174;2022-08-19T10:57:08;22.00;99.90
9915;DHT22;4996;48.746;9.174;2022-08-19T10:59:34;22.00;99.90
9915;DHT22;4996;48.746;9.174;2022-08-19T11:02:01;22.00;99.90
9915;DHT22;4996;48.746;9.174;2022-08-19T11:04:27;21.80;99.90
9915;DHT22;4996;48.746;9.174;2022-08-19T11:06:53;21.70;99.90
9915;DHT22;4996;48.746;9.174;2022-08-19T11:09:21;21.70;99.90
9915;DHT22;4996;48.746;9.174;2022-08-19T11:11:50;21.90;99.90
9915;DHT22;4996;48.746;9.174;2022-08-19T11:14:17;21.90;99.90
9915;DHT22;4996;48.746;9.174;2022-08-19T11:16:47;22.00;99.90
9915;DHT22;4996;48.746;9.174;2022-08-19T11:19:14;22.20;99.90
9915;DHT22;4996;48.746;9.174;2022-08-19T11:21:44;22.20;99.90
9915;DHT22;4996;48.746;9.174;2022-08-19T11:24:17;22.30;99.90
9915;DHT22;4996;48.746;9.174;2022-08-19T11:26:43;22.30;99.90
9915;DHT22;4996;48.746;9.174;2022-08-19T11:29:12;22.40;99.90
9915;DHT22;4996;48.746;9.174;2022-08-19T11:31:40;22.40;99.90
9915;DHT22;4996;48.746;9.174;2022-08-19T11:34:08;22.50;99.90
9915;DHT22;4996;48.746;9.174;2022-08-19T11:36:37;22.70;99.90
9915;DHT22;4996;48.746;9.174;2022-08-19T11:39:05;22.70;99.90
9915;DHT22;4996;48.746;9.174;2022-08-19T11:41:31;22.80;99.90
9915;DHT22;4996;48.746;9.174;2022-08-19T11:43:57;23.00;99.90
9915;DHT22;4996;48.746;9.174;2022-08-19T11:46:25;23.10;99.90
9915;DHT22;4996;48.746;9.174;2022-08-19T11:48:51;23.30;99.90
9915;DHT22;4996;48.746;9.174;2022-08-19T11:51:20;23.30;99.90
9915;DHT22;4996;48.746;9.174;2022-08-19T11:53:47;23.30;99.90
9915;DHT22;4996;48.746;9.174;2022-08-19T11:56:13;23.30;99.90
9915;DHT22;4996;48.746;9.174;2022-08-19T11:58:40;23.30;99.90
9915;DHT22;4996;48.746;9.174;2022-08-19T12:01:14;23.20;99.90
9915;DHT22;4996;48.746;9.174;2022-08-19T12:03:42;23.30;99.90
9915;DHT22;4996;48.746;9.174;2022-08-19T12:06:13;23.30;99.90
9915;DHT22;4996;48.746;9.174;2022-08-19T12:08:42;23.40;99.90
9915;DHT22;4996;48.746;9.174;2022-08-19T12:11:10;23.50;99.90
9915;DHT22;4996;48.746;9.174;2022-08-19T12:13:36;23.60;99.90
9915;DHT22;4996;48.746;9.174;2022-08-19T12:16:14;23.60;99.90
9915;DHT22;4996;48.746;9.174;2022-08-19T12:18:42;23.50;99.90
9915;DHT22;4996;48.746;9.174;2022-08-19T12:21:12;23.60;99.90
9915;DHT22;4996;48.746;9.174;2022-08-19T12:23:39;23.60;99.90
9915;DHT22;4996;48.746;9.174;2022-08-19T12:26:05;23.70;99.90
9915;DHT22;4996;48.746;9.174;2022-08-19T12:28:31;23.70;99.90
9915;DHT22;4996;48.746;9.174;2022-08-19T12:30:57;23.70;99.90
9915;DHT22;4996;48.746;9.174;2022-08-19T12:33:23;23.80;99.90
9915;DHT22;4996;48.746;9.174;2022-08-19T12:35:52;23.80;99.90
9915;DHT22;4996;48.746;9.174;2022-08-19T12:38:18;23.90;99.90
9915;DHT22;4996;48.746;9.174;2022-08-19T12:40:47;23.80;99.90
9915;DHT22;4996;48.746;9.174;2022-08-19T12:43:14;23.70;99.90
9915;DHT22;4996;48.746;9.174;2022-08-19T12:45:41;23.40;99.90
9915;DHT22;4996;48.746;9.174;2022-08-19T12:48:08;23.20;99.90
9915;DHT22;4996;48.746;9.174;2022-08-19T12:50:33;23.10;99.90
9915;DHT22;4996;48.746;9.174;2022-08-19T12:52:59;23.00;99.90
9915;DHT22;4996;48.746;9.174;2022-08-19T12:55:24;22.90;99.90
9915;DHT22;4996;48.746;9.174;2022-08-19T12:57:50;22.80;99.90
9915;DHT22;4996;48.746;9.174;2022-08-19T13:00:19;22.70;99.90
9915;DHT22;4996;48.746;9.174;2022-08-19T13:02:49;22.70;99.90
9915;DHT22;4996;48.746;9.174;2022-08-19T13:05:18;22.70;99.90
9915;DHT22;4996;48.746;9.174;2022-08-19T13:07:46;22.60;99.90
9915;DHT22;4996;48.746;9.174;2022-08-19T13:10:14;22.70;99.90
9915;DHT22;4996;48.746;9.174;2022-08-19T13:12:44;22.80;99.90
9915;DHT22;4996;48.746;9.174;2022-08-19T13:15:11;22.70;99.90
9915;DHT22;4996;48.746;9.174;2022-08-19T13:17:37;22.70;99.90
9915;DHT22;4996;48.746;9.174;2022-08-19T13:20:03;22.70;99.90
9915;DHT22;4996;48.746;9.174;2022-08-19T13:22:31;22.60;99.90
9915;DHT22;4996;48.746;9.174;2022-08-19T13:24:57;22.50;99.90
9915;DHT22;4996;48.746;9.174;2022-08-19T13:27:22;22.50;99.90
9915;DHT22;4996;48.746;9.174;2022-08-19T13:29:47;22.50;99.90
9915;DHT22;4996;48.746;9.174;2022-08-19T13:32:32;22.40;99.90
9915;DHT22;4996;48.746;9.174;2022-08-19T13:35:16;22.40;99.90
9915;DHT22;4996;48.746;9.174;2022-08-19T13:37:42;22.30;99.90
9915;DHT22;4996;48.746;9.174;2022-08-19T13:40:12;22.20;99.90
9915;DHT22;4996;48.746;9.174;2022-08-19T13:42:41;22.10;99.90
9915;DHT22;4996;48.746;9.174;2022-08-19T13:45:07;22.10;99.90
9915;DHT22;4996;48.746;9.174;2022-08-19T13:47:34;22.00;99.90
9915;DHT22;4996;48.746;9.174;2022-08-19T13:50:03;21.90;99.90
9915;DHT22;4996;48.746;9.174;2022-08-19T13:52:29;21.80;99.90
9915;DHT22;4996;48.746;9.174;2022-08-19T13:54:55;21.90;99.90
9915;DHT22;4996;48.746;9.174;2022-08-19T13:57:21;21.80;99.90
9915;DHT22;4996;48.746;9.174;2022-08-19T13:59:47;21.70;99.90
9915;DHT22;4996;48.746;9.174;2022-08-19T14:02:12;21.70;99.90
9915;DHT22;4996;48.746;9.174;2022-08-19T14:04:38;21.70;99.90
9915;DHT22;4996;48.746;9.174;2022-08-19T14:07:04;21.60;99.90
9915;DHT22;4996;48.746;9.174;2022-08-19T14:09:30;21.70;99.90
9915;DHT22;4996;48.746;9.174;2022-08-19T14:11:55;21.60;99.90
9915;DHT22;4996;48.746;9.174;2022-08-19T14:14:21;21.60;99.90
9915;DHT22;4996;48.746;9.174;2022-08-19T14:16:47;21.60;99.90
9915;DHT22;4996;48.746;9.174;2022-08-19T14:19:13;21.50;99.90
9915;DHT22;4996;48.746;9.174;2022-08-19T14:21:38;21.50;99.90
9915;DHT22;4996;48.746;9.174;2022-08-19T14:24:06;21.50;99.90
9915;DHT22;4996;48.746;9.174;2022-08-19T14:26:32;21.70;99.90
9915;DHT22;4996;48.746;9.174;2022-08-19T14:28:57;21.50;99.90
9915;DHT22;4996;48.746;9.174;2022-08-19T14:31:23;21.50;99.90
9915;DHT22;4996;48.746;9.174;2022-08-19T14:33:49;21.60;99.90
9915;DHT22;4996;48.746;9.174;2022-08-19T14:36:16;21.60;99.90
9915;DHT22;4996;48.746;9.174;2022-08-19T14:38:43;21.60;99.90
9915;DHT22;4996;48.746;9.174;2022-08-19T14:43:36;21.80;99.90
9915;DHT22;4996;48.746;9.174;2022-08-19T14:46:01;21.90;99.90
9915;DHT22;4996;48.746;9.174;2022-08-19T14:48:27;21.90;99.90
9915;DHT22;4996;48.746;9.174;2022-08-19T14:50:52;22.00;99.90
9915;DHT22;4996;48.746;9.174;2022-08-19T14:53:18;22.10;99.90
9915;DHT22;4996;48.746;9.174;2022-08-19T14:55:45;22.20;99.90
9915;DHT22;4996;48.746;9.174;2022-08-19T14:58:11;22.30;99.90
9915;DHT22;4996;48.746;9.174;2022-08-19T15:00:37;22.30;99.90
9915;DHT22;4996;48.746;9.174;2022-08-19T15:03:03;22.40;99.90
9915;DHT22;4996;48.746;9.174;2022-08-19T15:05:28;22.40;99.90
9915;DHT22;4996;48.746;9.174;2022-08-19T15:07:54;22.40;99.90
9915;DHT22;4996;48.746;9.174;2022-08-19T15:10:22;22.40;99.90
9915;DHT22;4996;48.746;9.174;2022-08-19T15:12:48;22.40;99.90
9915;DHT22;4996;48.746;9.174;2022-08-19T15:15:16;22.40;99.90
9915;DHT22;4996;48.746;9.174;2022-08-19T15:17:45;22.40;99.90
9915;DHT22;4996;48.746;9.174;2022-08-19T15:20:17;22.40;99.90
9915;DHT22;4996;48.746;9.174;2022-08-19T15:22:43;22.60;99.90
9915;DHT22;4996;48.746;9.174;2022-08-19T15:25:12;22.70;99.90
9915;DHT22;4996;48.746;9.174;2022-08-19T15:27:38;22.70;99.90
9915;DHT22;4996;48.746;9.174;2022-08-19T15:30:04;22.80;99.90
9915;DHT22;4996;48.746;9.174;2022-08-19T15:32:31;22.90;99.90
9915;DHT22;4996;48.746;9.174;2022-08-19T15:34:57;23.00;99.90
9915;DHT22;4996;48.746;9.174;2022-08-19T15:37:22;22.90;99.90
9915;DHT22;4996;48.746;9.174;2022-08-19T15:39:49;23.10;99.90
9915;DHT22;4996;48.746;9.174;2022-08-19T15:42:14;23.10;99.90
9915;DHT22;4996;48.746;9.174;2022-08-19T15:44:40;23.10;99.90
9915;DHT22;4996;48.746;9.174;2022-08-19T15:47:06;23.20;99.90
9915;DHT22;4996;48.746;9.174;2022-08-19T15:49:31;23.10;99.90
9915;DHT22;4996;48.746;9.174;2022-08-19T15:51:57;23.20;99.90
9915;DHT22;4996;48.746;9.174;2022-08-19T15:54:24;23.20;99.90
9915;DHT22;4996;48.746;9.174;2022-08-19T15:56:50;23.10;99.90
9915;DHT22;4996;48.746;9.174;2022-08-19T15:59:35;23.20;99.90
9915;DHT22;4996;48.746;9.174;2022-08-19T16:02:24;23.20;99.90
9915;DHT22;4996;48.746;9.174;2022-08-19T16:05:10;23.20;99.90
9915;DHT22;4996;48.746;9.174;2022-08-19T16:07:55;23.30;99.90
9915;DHT22;4996;48.746;9.174;2022-08-19T16:10:20;23.30;99.90
9915;DHT22;4996;48.746;9.174;2022-08-19T16:12:46;23.20;99.90
9915;DHT22;4996;48.746;9.174;2022-08-19T16:15:12;23.10;99.90